Terminal Aerodrome Forecast
Issued by NWS

Home | Current Version | Previous Version | Graphics & Text | Print | Product List | Glossary On
Versions: 1 2 3 4 5 6 7 8 9 10 11 12 13 14 15 16 17 18 19
000
FTUS43 KABR 241700
TAFMBG
TAF
KMBG 241728Z 2418/2518 25019G24KT P6SM SCT029
     FM250200 27010KT P6SM FEW250
     FM251500 30019G25KT P6SM BKN250=

USA.gov is the U.S. government's official web portal to all federal, state and local government web resources and services.